Time;durP1;ratioP1;P1;durP2;ratioP2;P2;SDS_P1;SDS_P2;PMS_P1;PMS_P2;Temp;Humidity;BMP_temperature;BMP_pressure;BME280_temperature;BME280_humidity;BME280_pressure;Samples;Min_cycle;Max_cycle;Signal;HPM_P1;HPM_P2
2022/01/24 00:00:33;;;;;;;0.40;0.40;;;7.00;99.90;;;;;;5052930;28;20466;-70
2022/01/24 00:03:20;;;;;;;0.40;0.40;;;7.00;99.90;;;;;;5053604;28;20420;-71
2022/01/24 00:06:11;;;;;;;0.40;0.40;;;7.00;99.90;;;;;;5053609;28;20435;-71
2022/01/24 00:08:58;;;;;;;0.40;0.40;;;6.90;99.90;;;;;;5053345;28;20456;-71
2022/01/24 00:11:57;;;;;;;0.40;0.40;;;6.90;99.90;;;;;;5054777;28;20424;-71
2022/01/24 00:15:00;;;;;;;0.40;0.40;;;6.90;99.90;;;;;;5054113;28;20427;-70
2022/01/24 00:17:50;;;;;;;0.40;0.40;;;6.90;99.90;;;;;;5055176;28;20561;-70
2022/01/24 00:27:03;;;;;;;0.40;0.40;;;6.80;99.90;;;;;;5012921;28;20417;-72
2022/01/24 00:29:50;;;;;;;0.50;0.50;;;6.90;99.90;;;;;;5052831;28;20479;-70
2022/01/24 00:32:37;;;;;;;0.40;0.40;;;6.90;99.90;;;;;;5054929;28;20964;-71
2022/01/24 00:35:24;;;;;;;0.40;0.40;;;6.90;99.90;;;;;;5056130;28;20435;-71
2022/01/24 00:38:11;;;;;;;0.40;0.40;;;6.90;99.90;;;;;;5053298;28;20515;-71
2022/01/24 00:41:00;;;;;;;0.40;0.40;;;6.90;99.90;;;;;;5053763;28;20447;-70
2022/01/24 00:44:02;;;;;;;0.47;0.47;;;6.90;99.90;;;;;;5053874;28;20913;-70
2022/01/24 00:46:54;;;;;;;0.40;0.40;;;6.90;99.90;;;;;;5053075;28;20503;-70
2022/01/24 00:49:51;;;;;;;0.40;0.40;;;6.90;99.90;;;;;;5052520;28;21018;-71
2022/01/24 00:55:44;;;;;;;0.40;0.40;;;6.90;99.90;;;;;;5053932;28;20420;-70
2022/01/24 00:58:33;;;;;;;0.40;0.40;;;6.90;99.90;;;;;;5054002;28;20416;-70
2022/01/24 01:01:20;;;;;;;0.40;0.40;;;6.90;99.90;;;;;;5053768;28;20478;-70
2022/01/24 01:04:07;;;;;;;0.40;0.40;;;6.90;99.90;;;;;;5053745;28;20951;-70
2022/01/24 01:06:55;;;;;;;0.40;0.40;;;6.90;99.90;;;;;;5053451;28;20513;-70
2022/01/24 01:18:56;;;;;;;0.50;0.50;;;6.90;99.90;;;;;;5052436;28;20421;-70
2022/01/24 01:21:43;;;;;;;0.40;0.40;;;6.90;99.90;;;;;;5052093;28;20421;-71
2022/01/24 01:24:33;;;;;;;0.40;0.40;;;7.00;99.90;;;;;;5054262;28;20578;-71
2022/01/24 01:27:25;;;;;;;0.40;0.40;;;6.80;99.90;;;;;;5054690;28;20422;-70
2022/01/24 01:30:17;;;;;;;0.60;0.60;;;6.80;99.90;;;;;;5052702;28;20621;-71
2022/01/24 01:33:12;;;;;;;0.50;0.50;;;6.90;99.90;;;;;;5052844;28;20436;-71
2022/01/24 01:36:08;;;;;;;0.40;0.40;;;6.90;99.90;;;;;;5052813;28;20796;-70
2022/01/24 01:39:35;;;;;;;0.83;0.80;;;6.90;99.90;;;;;;5052691;28;20439;-71
2022/01/24 01:54:56;;;;;;;0.50;0.50;;;6.80;99.90;;;;;;5051832;28;20419;-70
2022/01/24 01:57:43;;;;;;;0.40;0.40;;;6.80;99.90;;;;;;5051883;28;20450;-70
2022/01/24 02:00:30;;;;;;;0.40;0.40;;;6.70;99.90;;;;;;5052889;28;20458;-70
2022/01/24 02:03:18;;;;;;;0.40;0.40;;;6.70;99.90;;;;;;5053025;28;20412;-70
2022/01/24 02:06:06;;;;;;;0.40;0.40;;;6.70;99.90;;;;;;5053014;28;21055;-70
2022/01/24 02:08:58;;;;;;;0.70;0.70;;;6.60;99.90;;;;;;5052353;28;20456;-70
2022/01/24 02:11:47;;;;;;;1.10;0.87;;;6.70;99.90;;;;;;5051982;28;20424;-71
2022/01/24 02:14:38;;;;;;;0.93;0.90;;;6.70;99.90;;;;;;5052243;28;20423;-71
2022/01/24 02:17:35;;;;;;;0.40;0.40;;;6.60;99.90;;;;;;5051762;28;20423;-70
2022/01/24 02:20:39;;;;;;;0.40;0.40;;;6.60;99.90;;;;;;5051358;28;20451;-71
2022/01/24 02:23:40;;;;;;;0.40;0.40;;;6.60;99.90;;;;;;5053350;28;20423;-70
2022/01/24 02:26:28;;;;;;;0.60;0.60;;;6.70;99.90;;;;;;5054684;28;20444;-73
2022/01/24 02:29:25;;;;;;;0.40;0.40;;;6.60;99.90;;;;;;5054700;28;20578;-71
2022/01/24 02:32:12;;;;;;;0.40;0.40;;;6.60;99.90;;;;;;5054483;28;20427;-71
2022/01/24 02:34:59;;;;;;;0.40;0.40;;;6.60;99.90;;;;;;5055190;28;20428;-71
2022/01/24 02:37:46;;;;;;;0.40;0.40;;;6.60;99.90;;;;;;5055011;28;20794;-71
2022/01/24 02:40:34;;;;;;;0.43;0.43;;;6.60;99.90;;;;;;5054290;28;20444;-71
2022/01/24 02:49:32;;;;;;;0.90;0.70;;;6.60;99.90;;;;;;5059080;28;20482;-69
2022/01/24 02:52:23;;;;;;;0.40;0.40;;;6.50;99.90;;;;;;5054556;28;20428;-70
2022/01/24 02:55:11;;;;;;;0.60;0.60;;;6.60;99.90;;;;;;5053990;28;20424;-71
2022/01/24 02:57:59;;;;;;;0.40;0.40;;;6.40;99.90;;;;;;5054177;28;20420;-70
2022/01/24 03:00:48;;;;;;;0.80;0.80;;;6.60;99.90;;;;;;5054166;28;20437;-69
2022/01/24 03:03:36;;;;;;;0.40;0.40;;;6.40;99.90;;;;;;5054117;28;20456;-70
2022/01/24 03:06:23;;;;;;;0.43;0.43;;;6.40;99.90;;;;;;5054417;28;20431;-70
2022/01/24 03:09:10;;;;;;;0.40;0.40;;;6.40;99.90;;;;;;5053580;28;20506;-70
2022/01/24 03:12:07;;;;;;;0.40;0.40;;;6.40;99.90;;;;;;5053931;28;20423;-69
2022/01/24 03:14:55;;;;;;;2.73;2.50;;;6.40;99.90;;;;;;5053883;28;20940;-71
2022/01/24 03:17:42;;;;;;;1.03;1.03;;;6.40;99.90;;;;;;5054473;28;20433;-70
2022/01/24 03:20:29;;;;;;;0.40;0.40;;;6.50;99.90;;;;;;5053277;28;20896;-70
2022/01/24 03:23:17;;;;;;;0.40;0.40;;;6.50;99.90;;;;;;5054473;28;20471;-70
2022/01/24 03:26:04;;;;;;;0.40;0.40;;;6.50;99.90;;;;;;5035043;28;20797;-70
2022/01/24 03:28:51;;;;;;;2.40;0.90;;;6.40;99.90;;;;;;5033611;28;20421;-70
2022/01/24 03:31:42;;;;;;;0.40;0.40;;;6.50;99.90;;;;;;5034380;28;20449;-70
2022/01/24 03:34:29;;;;;;;0.40;0.40;;;6.50;99.90;;;;;;5034039;28;20979;-70
2022/01/24 03:37:16;;;;;;;0.43;0.43;;;6.60;99.90;;;;;;5034226;28;20428;-71
2022/01/24 03:40:04;;;;;;;0.70;0.70;;;6.50;99.90;;;;;;5034172;28;20495;-70
2022/01/24 03:42:51;;;;;;;0.60;0.60;;;6.50;99.90;;;;;;5034499;28;20463;-70
2022/01/24 03:45:44;;;;;;;0.63;0.63;;;6.40;99.90;;;;;;5034351;28;20440;-70
2022/01/24 03:48:39;;;;;;;0.40;0.40;;;6.40;99.90;;;;;;5034035;28;20571;-70
2022/01/24 03:51:26;;;;;;;0.40;0.40;;;6.40;99.90;;;;;;5033820;28;20988;-70
2022/01/24 03:54:13;;;;;;;0.40;0.40;;;6.40;99.90;;;;;;5034963;28;20417;-71
2022/01/24 03:57:00;;;;;;;0.40;0.40;;;6.30;99.90;;;;;;5036039;28;20472;-71
2022/01/24 03:59:47;;;;;;;0.40;0.40;;;6.30;99.90;;;;;;5035568;28;20490;-71
2022/01/24 04:02:35;;;;;;;0.40;0.40;;;6.30;99.90;;;;;;5034926;28;20425;-71
2022/01/24 04:05:23;;;;;;;0.60;0.60;;;6.30;99.90;;;;;;5033681;28;20459;-70
2022/01/24 04:08:10;;;;;;;1.00;0.73;;;6.30;99.90;;;;;;5034072;28;20452;-70
2022/01/24 04:10:58;;;;;;;0.40;0.40;;;6.30;99.90;;;;;;5033680;28;20923;-70
2022/01/24 04:13:45;;;;;;;0.80;0.80;;;6.30;99.90;;;;;;5037340;28;20436;-70
2022/01/24 04:16:33;;;;;;;0.40;0.40;;;6.30;99.90;;;;;;5036901;28;20440;-71
2022/01/24 04:21:17;;;;;;;0.40;0.40;;;6.20;99.90;;;;;;5036673;28;20966;-70
2022/01/24 04:22:36;;;;;;;0.40;0.40;;;6.20;99.90;;;;;;5036967;28;20429;-71
2022/01/24 04:25:24;;;;;;;1.53;0.70;;;6.30;99.90;;;;;;5050906;28;21004;-70
2022/01/24 04:28:11;;;;;;;0.40;0.40;;;6.30;99.90;;;;;;5053144;28;20482;-70
2022/01/24 04:30:58;;;;;;;0.40;0.40;;;6.10;99.90;;;;;;5052476;28;20478;-70
2022/01/24 04:33:45;;;;;;;0.40;0.40;;;6.10;99.90;;;;;;5053100;28;20420;-70
2022/01/24 04:36:32;;;;;;;0.40;0.40;;;6.20;99.90;;;;;;5052873;28;20462;-70
2022/01/24 04:39:20;;;;;;;0.40;0.40;;;6.10;99.90;;;;;;5052255;28;20486;-69
2022/01/24 04:42:12;;;;;;;0.97;0.97;;;6.20;99.90;;;;;;5052346;28;20420;-71
2022/01/24 04:45:21;;;;;;;0.43;0.43;;;6.10;99.90;;;;;;5052475;28;20432;-70
2022/01/24 04:51:25;;;;;;;0.40;0.40;;;5.90;99.90;;;;;;5052271;28;20468;-69
2022/01/24 04:54:39;;;;;;;0.40;0.40;;;5.90;99.90;;;;;;5051977;28;20423;-70
2022/01/24 04:57:29;;;;;;;0.40;0.40;;;5.80;99.90;;;;;;5051690;28;20424;-70
2022/01/24 05:00:16;;;;;;;0.40;0.40;;;5.90;99.90;;;;;;5051883;28;20827;-70
2022/01/24 05:03:03;;;;;;;0.60;0.60;;;5.90;99.90;;;;;;5052251;28;20424;-69
2022/01/24 05:05:52;;;;;;;0.40;0.40;;;5.80;99.90;;;;;;5052009;28;20482;-70
2022/01/24 05:08:39;;;;;;;0.40;0.40;;;5.90;99.90;;;;;;5051298;28;20428;-70
2022/01/24 05:11:35;;;;;;;0.40;0.40;;;5.80;99.90;;;;;;5051793;28;20889;-70
2022/01/24 05:23:43;;;;;;;1.63;1.63;;;5.90;99.90;;;;;;5051789;28;20416;-71
2022/01/24 05:26:30;;;;;;;1.47;1.37;;;6.00;99.90;;;;;;5052581;28;20428;-71
2022/01/24 05:29:17;;;;;;;0.40;0.40;;;6.10;99.90;;;;;;5051879;28;20439;-71
2022/01/24 05:32:08;;;;;;;1.53;1.43;;;6.00;99.90;;;;;;5052366;28;20903;-70
2022/01/24 05:34:55;;;;;;;1.23;1.13;;;5.90;99.90;;;;;;5051783;28;20420;-70
2022/01/24 05:37:42;;;;;;;0.67;0.60;;;6.00;99.90;;;;;;5052210;28;20963;-70
2022/01/24 05:40:29;;;;;;;0.40;0.40;;;5.90;99.90;;;;;;5051899;28;20440;-69
2022/01/24 05:43:16;;;;;;;0.40;0.40;;;6.00;99.90;;;;;;5051638;28;20416;-70
2022/01/24 05:46:03;;;;;;;1.57;1.13;;;6.00;99.90;;;;;;5051769;28;20478;-70
2022/01/24 05:48:52;;;;;;;0.50;0.50;;;6.00;99.90;;;;;;5051201;28;20750;-71
2022/01/24 05:51:39;;;;;;;0.40;0.40;;;5.90;99.90;;;;;;5052024;28;20475;-70
2022/01/24 05:54:26;;;;;;;0.40;0.40;;;5.90;99.90;;;;;;5051957;28;20428;-70
2022/01/24 05:57:13;;;;;;;0.40;0.40;;;5.90;99.90;;;;;;5051141;28;20428;-70
2022/01/24 06:00:00;;;;;;;0.60;0.60;;;6.00;99.90;;;;;;5051138;28;20440;-71
2022/01/24 06:02:47;;;;;;;0.40;0.40;;;5.90;99.90;;;;;;5051863;28;20909;-70
2022/01/24 06:05:35;;;;;;;0.40;0.40;;;5.80;99.90;;;;;;5052363;28;20428;-71
2022/01/24 06:08:22;;;;;;;0.40;0.40;;;5.90;99.90;;;;;;5051812;28;20460;-71
2022/01/24 06:11:09;;;;;;;0.40;0.40;;;5.90;99.90;;;;;;5051437;28;20838;-70
2022/01/24 06:13:57;;;;;;;0.40;0.40;;;5.90;99.90;;;;;;5052144;28;20455;-69
2022/01/24 06:16:44;;;;;;;0.40;0.40;;;5.90;99.90;;;;;;5052320;28;20443;-70
2022/01/24 06:19:31;;;;;;;0.40;0.40;;;6.00;99.90;;;;;;5051283;28;20486;-70
2022/01/24 06:22:20;;;;;;;0.67;0.67;;;5.90;99.90;;;;;;5051718;28;20485;-70
2022/01/24 06:25:09;;;;;;;0.40;0.40;;;5.90;99.90;;;;;;5052198;28;20788;-70
2022/01/24 06:27:56;;;;;;;0.40;0.40;;;5.80;99.90;;;;;;5051857;28;20424;-70
2022/01/24 06:30:44;;;;;;;0.40;0.40;;;5.80;99.90;;;;;;5050766;28;20538;-71
2022/01/24 06:33:31;;;;;;;0.40;0.40;;;5.80;99.90;;;;;;5051369;28;20519;-71
2022/01/24 06:36:18;;;;;;;0.40;0.40;;;5.80;99.90;;;;;;5051321;28;20478;-70
2022/01/24 06:39:07;;;;;;;4.67;1.27;;;5.70;99.90;;;;;;5051845;28;20451;-71
2022/01/24 06:42:07;;;;;;;2.13;1.87;;;5.70;99.90;;;;;;5051525;28;20417;-71
2022/01/24 06:44:56;;;;;;;0.67;0.67;;;5.80;99.90;;;;;;5066058;28;20429;-71
2022/01/24 06:47:44;;;;;;;0.63;0.57;;;5.70;99.90;;;;;;5067397;28;20432;-71
2022/01/24 06:50:31;;;;;;;1.13;0.60;;;5.70;99.90;;;;;;5065938;28;20476;-71
2022/01/24 06:53:18;;;;;;;0.70;0.70;;;5.70;99.90;;;;;;5067052;28;20423;-71
2022/01/24 06:56:06;;;;;;;0.40;0.40;;;5.60;99.90;;;;;;5068374;28;20428;-73
2022/01/24 06:58:53;;;;;;;0.40;0.40;;;5.60;99.90;;;;;;5069894;28;20431;-70
2022/01/24 07:01:40;;;;;;;2.63;0.70;;;5.60;99.90;;;;;;5068265;28;20411;-72
2022/01/24 07:04:27;;;;;;;0.40;0.40;;;5.70;99.90;;;;;;5068218;28;20447;-71
2022/01/24 07:07:15;;;;;;;0.40;0.40;;;5.60;99.90;;;;;;5064176;28;20436;-69
2022/01/24 07:10:02;;;;;;;1.00;1.00;;;5.60;99.90;;;;;;5065119;28;20460;-70
2022/01/24 07:12:51;;;;;;;0.60;0.60;;;5.50;99.90;;;;;;5053942;28;20440;-70
2022/01/24 07:15:45;;;;;;;0.60;0.60;;;5.60;99.90;;;;;;5063603;28;20432;-71
2022/01/24 07:21:37;;;;;;;0.40;0.40;;;5.60;99.90;;;;;;5055007;28;20499;-70
2022/01/24 07:24:25;;;;;;;0.50;0.50;;;5.70;99.90;;;;;;5055250;28;20463;-70
2022/01/24 07:27:11;;;;;;;1.17;0.60;;;5.50;99.90;;;;;;5055469;28;20634;-70
2022/01/24 07:30:01;;;;;;;0.40;0.40;;;5.70;99.90;;;;;;5067240;28;20440;-71
2022/01/24 07:32:48;;;;;;;3.43;3.20;;;5.70;99.90;;;;;;5068057;28;20431;-71
2022/01/24 07:35:35;;;;;;;0.40;0.40;;;5.60;99.90;;;;;;5066955;28;20421;-70
2022/01/24 07:38:22;;;;;;;0.40;0.40;;;5.60;99.90;;;;;;5067764;28;20431;-70
2022/01/24 07:41:09;;;;;;;0.40;0.40;;;5.70;99.90;;;;;;5065442;28;20452;-70
2022/01/24 07:43:57;;;;;;;0.40;0.40;;;5.80;99.90;;;;;;5065855;28;20424;-70
2022/01/24 07:46:45;;;;;;;0.40;0.40;;;5.80;99.90;;;;;;5066970;28;20451;-70
2022/01/24 07:49:32;;;;;;;1.33;0.60;;;5.80;99.90;;;;;;5066892;28;20491;-70
2022/01/24 07:52:19;;;;;;;0.40;0.40;;;5.90;99.90;;;;;;5066537;28;20459;-71
2022/01/24 07:55:07;;;;;;;0.40;0.40;;;5.90;99.90;;;;;;5065099;28;20493;-71
2022/01/24 07:57:54;;;;;;;0.40;0.40;;;5.90;99.90;;;;;;5061034;28;20428;-70
2022/01/24 08:00:41;;;;;;;0.40;0.40;;;6.10;99.90;;;;;;5063487;28;20440;-71
2022/01/24 08:03:29;;;;;;;0.40;0.40;;;6.10;99.90;;;;;;5066318;28;20447;-71
2022/01/24 08:06:18;;;;;;;6.20;5.60;;;6.20;99.90;;;;;;5057804;28;20518;-70
2022/01/24 08:09:05;;;;;;;0.40;0.40;;;6.20;99.90;;;;;;5054286;28;20773;-70
2022/01/24 08:11:52;;;;;;;1.37;0.70;;;6.30;99.90;;;;;;5054198;28;20464;-70
2022/01/24 08:14:39;;;;;;;0.40;0.40;;;6.30;99.90;;;;;;5053886;28;20812;-72
2022/01/24 08:17:26;;;;;;;0.40;0.40;;;6.30;99.90;;;;;;5053798;28;20432;-72
2022/01/24 08:20:16;;;;;;;0.40;0.40;;;6.40;99.90;;;;;;5052521;28;20455;-71
2022/01/24 08:23:03;;;;;;;0.40;0.40;;;6.40;99.90;;;;;;5053663;28;20420;-70
2022/01/24 08:25:50;;;;;;;0.40;0.40;;;6.50;99.90;;;;;;5053515;28;20450;-71
2022/01/24 08:28:37;;;;;;;0.40;0.40;;;6.60;99.90;;;;;;5052017;28;20856;-73
2022/01/24 08:31:24;;;;;;;0.40;0.40;;;6.50;99.90;;;;;;5053666;28;20518;-72
2022/01/24 08:34:11;;;;;;;1.13;1.03;;;6.60;99.90;;;;;;5048070;28;20444;-71
2022/01/24 08:36:59;;;;;;;0.40;0.40;;;6.70;99.90;;;;;;5052922;28;20550;-70
2022/01/24 08:39:46;;;;;;;0.40;0.40;;;6.80;99.90;;;;;;5033915;28;20433;-70
2022/01/24 08:42:37;;;;;;;0.50;0.50;;;6.90;99.90;;;;;;5032450;28;20420;-72
2022/01/24 08:45:47;;;;;;;0.40;0.40;;;7.00;99.90;;;;;;5032223;28;20425;-69
2022/01/24 08:48:34;;;;;;;0.40;0.40;;;6.90;99.90;;;;;;5047038;28;20424;-70
2022/01/24 08:51:21;;;;;;;0.60;0.60;;;7.00;99.90;;;;;;5052204;28;20553;-71
2022/01/24 08:54:10;;;;;;;0.40;0.40;;;7.00;99.90;;;;;;5052699;28;20416;-71
2022/01/24 08:56:56;;;;;;;1.70;1.60;;;7.00;99.90;;;;;;5052870;28;20448;-70
2022/01/24 08:59:43;;;;;;;0.40;0.40;;;7.00;99.90;;;;;;5052665;28;20452;-70
2022/01/24 09:02:30;;;;;;;0.40;0.40;;;6.90;99.90;;;;;;5049902;28;20479;-69
2022/01/24 09:05:18;;;;;;;0.40;0.40;;;7.00;99.90;;;;;;5046314;28;20448;-71
2022/01/24 09:08:06;;;;;;;3.17;0.83;;;7.00;99.90;;;;;;5043798;28;20587;-70
2022/01/24 09:10:55;;;;;;;0.40;0.40;;;7.00;99.90;;;;;;5046135;28;20475;-70
2022/01/24 09:13:42;;;;;;;0.40;0.40;;;7.10;99.90;;;;;;5052393;28;20443;-71
2022/01/24 09:16:29;;;;;;;0.70;0.70;;;7.00;99.90;;;;;;5050878;28;20424;-70
2022/01/24 09:19:16;;;;;;;0.40;0.40;;;6.90;99.90;;;;;;5050510;28;20464;-72
2022/01/24 09:22:04;;;;;;;0.40;0.40;;;7.00;99.90;;;;;;5049588;28;20439;-73
2022/01/24 09:24:50;;;;;;;0.40;0.40;;;7.00;99.90;;;;;;5051989;28;20428;-72
2022/01/24 09:27:40;;;;;;;1.03;1.00;;;7.00;99.90;;;;;;5032753;28;20413;-71
2022/01/24 09:30:27;;;;;;;1.37;1.27;;;7.00;99.90;;;;;;5048935;28;20463;-70
2022/01/24 09:33:13;;;;;;;0.40;0.40;;;7.10;99.90;;;;;;5051303;28;20513;-70
2022/01/24 09:36:01;;;;;;;0.40;0.40;;;7.10;99.90;;;;;;5050916;28;20420;-71
2022/01/24 09:38:48;;;;;;;0.40;0.40;;;7.10;99.90;;;;;;5051515;28;20431;-71
2022/01/24 09:41:36;;;;;;;0.40;0.40;;;7.20;99.90;;;;;;5050947;28;20941;-70
2022/01/24 09:44:24;;;;;;;0.40;0.40;;;7.30;99.90;;;;;;5050806;28;20420;-70
2022/01/24 09:47:15;;;;;;;0.40;0.40;;;7.40;99.90;;;;;;5051326;28;20916;-70
2022/01/24 09:50:04;;;;;;;0.50;0.50;;;7.50;99.90;;;;;;5047606;28;20488;-71
2022/01/24 09:52:51;;;;;;;0.40;0.40;;;7.60;99.90;;;;;;5044163;28;20571;-70
2022/01/24 09:55:38;;;;;;;0.40;0.40;;;7.60;99.90;;;;;;5043408;28;20860;-72
2022/01/24 09:58:25;;;;;;;0.97;0.53;;;7.60;99.90;;;;;;5049770;28;20521;-71
2022/01/24 10:01:14;;;;;;;2.63;1.37;;;7.60;99.90;;;;;;5051621;28;20932;-70
2022/01/24 10:04:15;;;;;;;0.40;0.40;;;7.60;99.90;;;;;;5032655;28;20791;-71
2022/01/24 10:07:06;;;;;;;0.40;0.40;;;7.50;99.90;;;;;;5031806;28;20426;-72
2022/01/24 10:09:55;;;;;;;0.40;0.40;;;7.50;99.90;;;;;;5034661;28;20452;-71
2022/01/24 10:18:50;;;;;;;0.50;0.50;;;7.80;99.90;;;;;;5050182;28;20435;-70
2022/01/24 10:21:40;;;;;;;0.40;0.40;;;8.00;99.90;;;;;;5051015;28;20439;-71
2022/01/24 10:24:35;;;;;;;0.40;0.40;;;8.00;99.90;;;;;;5050687;28;20851;-73
2022/01/24 10:27:24;;;;;;;0.40;0.40;;;8.00;99.90;;;;;;5052162;28;20427;-72
2022/01/24 10:30:12;;;;;;;2.97;1.93;;;8.00;99.90;;;;;;5052052;28;20456;-75
2022/01/24 10:33:03;;;;;;;0.90;0.90;;;8.10;99.90;;;;;;5052464;28;20521;-71
2022/01/24 10:35:51;;;;;;;0.93;0.93;;;8.20;99.90;;;;;;5052395;28;20932;-71
2022/01/24 10:38:42;;;;;;;0.40;0.40;;;8.20;99.90;;;;;;5050654;28;20424;-73
2022/01/24 10:41:49;;;;;;;0.40;0.40;;;8.20;99.90;;;;;;5053773;28;20519;-72
2022/01/24 10:44:37;;;;;;;1.00;0.90;;;8.20;99.90;;;;;;5054037;28;20793;-70
2022/01/24 10:47:28;;;;;;;0.50;0.50;;;8.30;99.90;;;;;;5056030;28;20531;-70
2022/01/24 10:50:21;;;;;;;0.40;0.40;;;8.30;99.90;;;;;;5055478;28;20464;-70
2022/01/24 10:53:14;;;;;;;0.70;0.70;;;8.10;99.90;;;;;;5054902;28;20459;-72
2022/01/24 10:56:01;;;;;;;0.40;0.40;;;7.80;99.90;;;;;;5054446;28;20941;-73
2022/01/24 10:58:48;;;;;;;0.70;0.70;;;7.60;99.90;;;;;;5053843;28;20424;-70
2022/01/24 11:01:35;;;;;;;0.40;0.40;;;7.50;99.90;;;;;;5035635;28;20417;-70
2022/01/24 11:04:24;;;;;;;1.30;1.03;;;7.30;99.90;;;;;;5034211;28;20432;-72
2022/01/24 11:07:11;;;;;;;0.40;0.40;;;7.20;99.90;;;;;;5035411;28;20777;-71
2022/01/24 11:10:04;;;;;;;0.40;0.40;;;7.10;99.90;;;;;;5044964;28;20904;-72
2022/01/24 11:12:52;;;;;;;1.03;1.03;;;7.00;99.90;;;;;;5049557;28;20455;-73
2022/01/24 11:15:42;;;;;;;1.00;0.80;;;7.10;99.90;;;;;;5054189;28;20784;-71
2022/01/24 11:18:30;;;;;;;0.40;0.40;;;7.10;99.90;;;;;;5052883;28;20941;-70
2022/01/24 11:21:16;;;;;;;0.40;0.40;;;7.00;99.90;;;;;;5054072;28;20427;-71
2022/01/24 11:24:07;;;;;;;0.40;0.40;;;7.00;99.90;;;;;;5054057;28;20473;-72
2022/01/24 11:26:55;;;;;;;0.40;0.40;;;7.00;99.90;;;;;;5053591;28;20428;-72
2022/01/24 11:29:43;;;;;;;1.83;0.87;;;7.20;99.90;;;;;;5053019;28;20440;-72
2022/01/24 11:32:34;;;;;;;0.47;0.47;;;7.30;99.90;;;;;;5051211;28;20553;-72
2022/01/24 11:35:32;;;;;;;0.40;0.40;;;7.40;99.90;;;;;;5044718;28;20439;-71
2022/01/24 11:38:27;;;;;;;0.50;0.50;;;7.50;99.90;;;;;;5052306;28;20486;-70
2022/01/24 11:41:21;;;;;;;0.70;0.70;;;7.70;99.90;;;;;;5051828;28;20435;-70
2022/01/24 11:44:12;;;;;;;0.40;0.40;;;7.80;99.90;;;;;;5050838;28;20428;-70
2022/01/24 11:47:00;;;;;;;0.40;0.40;;;7.90;99.90;;;;;;5053324;28;20441;-70
2022/01/24 11:49:47;;;;;;;1.23;1.17;;;7.80;99.90;;;;;;5046687;28;20466;-71
2022/01/24 11:52:36;;;;;;;0.40;0.40;;;7.80;99.90;;;;;;5053870;28;20500;-70
2022/01/24 11:55:33;;;;;;;0.40;0.40;;;7.80;99.90;;;;;;5053333;28;20448;-71
2022/01/24 11:58:27;;;;;;;0.60;0.60;;;7.60;99.90;;;;;;5040950;28;20479;-71
2022/01/24 12:01:34;;;;;;;0.43;0.43;;;7.60;99.90;;;;;;5050329;28;20834;-72
2022/01/24 12:04:48;;;;;;;4.10;1.47;;;7.50;99.90;;;;;;5040726;28;20464;-72
2022/01/24 12:07:42;;;;;;;0.40;0.40;;;7.50;99.90;;;;;;5046226;28;20421;-71
2022/01/24 12:10:41;;;;;;;0.60;0.60;;;7.50;99.90;;;;;;5051711;28;20444;-72
2022/01/24 12:13:31;;;;;;;0.40;0.40;;;7.40;99.90;;;;;;5042793;28;21000;-73
2022/01/24 12:16:20;;;;;;;0.50;0.50;;;7.20;99.90;;;;;;5052195;28;20436;-71
2022/01/24 12:19:08;;;;;;;0.67;0.67;;;7.10;99.90;;;;;;5052586;28;20455;-70
2022/01/24 12:21:55;;;;;;;0.47;0.47;;;7.10;99.90;;;;;;5053308;28;20542;-70
2022/01/24 12:24:45;;;;;;;0.80;0.80;;;7.00;99.90;;;;;;5053254;28;20477;-70
2022/01/24 12:27:32;;;;;;;3.43;1.27;;;7.10;99.90;;;;;;5053033;28;20424;-72
2022/01/24 12:30:19;;;;;;;0.40;0.40;;;6.90;99.90;;;;;;5051056;28;20475;-70
2022/01/24 12:33:07;;;;;;;0.40;0.40;;;6.80;99.90;;;;;;5054249;28;21050;-70
2022/01/24 12:35:54;;;;;;;0.50;0.50;;;6.70;99.90;;;;;;5056093;28;20487;-70
2022/01/24 12:38:43;;;;;;;0.40;0.40;;;6.70;99.90;;;;;;5056953;28;20968;-71
2022/01/24 12:41:37;;;;;;;0.73;0.73;;;6.70;99.90;;;;;;5057026;28;20444;-70
2022/01/24 12:47:31;;;;;;;0.40;0.40;;;6.70;99.90;;;;;;5054749;28;20506;-73
2022/01/24 12:50:19;;;;;;;0.40;0.40;;;6.70;99.90;;;;;;5055925;28;21114;-69
2022/01/24 12:53:13;;;;;;;0.40;0.40;;;6.60;99.90;;;;;;5055103;28;20452;-69
2022/01/24 12:56:04;;;;;;;0.40;0.40;;;6.60;99.90;;;;;;5058971;28;20523;-70
2022/01/24 12:58:52;;;;;;;0.40;0.40;;;6.70;99.90;;;;;;5055258;28;20478;-71
2022/01/24 13:01:41;;;;;;;0.50;0.50;;;6.70;99.90;;;;;;5057202;28;20515;-70
2022/01/24 13:04:32;;;;;;;0.50;0.50;;;6.60;99.90;;;;;;5049407;28;20440;-69
2022/01/24 13:07:21;;;;;;;0.50;0.50;;;6.60;99.90;;;;;;5050236;28;20490;-70
2022/01/24 13:10:11;;;;;;;0.50;0.50;;;6.50;99.90;;;;;;5049880;28;20791;-70
2022/01/24 13:13:03;;;;;;;0.50;0.50;;;6.50;99.90;;;;;;5051899;28;20846;-69
2022/01/24 13:22:06;;;;;;;0.50;0.50;;;6.40;99.90;;;;;;5042951;28;20441;-70
2022/01/24 13:25:12;;;;;;;1.70;0.70;;;6.40;99.90;;;;;;5050947;28;20557;-70
2022/01/24 13:28:04;;;;;;;3.63;1.50;;;6.40;99.90;;;;;;5049500;28;20423;-71
2022/01/24 13:30:58;;;;;;;0.40;0.40;;;6.40;99.90;;;;;;5049042;28;20436;-70
2022/01/24 13:33:47;;;;;;;0.50;0.50;;;6.30;99.90;;;;;;5053833;28;20479;-70
2022/01/24 13:36:34;;;;;;;0.40;0.40;;;6.30;99.90;;;;;;5049816;28;20420;-72
2022/01/24 13:39:21;;;;;;;0.50;0.50;;;6.30;99.90;;;;;;5050990;28;20892;-70
2022/01/24 13:42:18;;;;;;;0.70;0.50;;;6.30;99.90;;;;;;5051828;28;20424;-71
2022/01/24 13:45:05;;;;;;;1.60;0.60;;;6.30;99.90;;;;;;5052496;28;20518;-71
2022/01/24 13:47:56;;;;;;;0.83;0.47;;;6.30;99.90;;;;;;5053932;28;20459;-70
2022/01/24 13:50:50;;;;;;;0.40;0.40;;;6.40;99.90;;;;;;5052723;28;20456;-70
2022/01/24 13:53:40;;;;;;;0.50;0.50;;;6.40;99.90;;;;;;5050881;28;21035;-70
2022/01/24 13:56:30;;;;;;;0.43;0.43;;;6.40;99.90;;;;;;5051633;28;20425;-70
2022/01/24 13:59:20;;;;;;;0.67;0.67;;;6.40;99.90;;;;;;5045047;28;20900;-71
2022/01/24 14:02:11;;;;;;;0.40;0.40;;;6.30;99.90;;;;;;5058398;28;21498;-71
2022/01/24 14:05:03;;;;;;;0.97;0.97;;;6.30;99.90;;;;;;5056186;28;20428;-70
2022/01/24 14:07:50;;;;;;;0.40;0.40;;;6.30;99.90;;;;;;5061206;28;20432;-69
2022/01/24 14:10:37;;;;;;;0.80;0.80;;;6.30;99.90;;;;;;5067703;28;20454;-69
2022/01/24 14:13:25;;;;;;;0.50;0.50;;;6.30;99.90;;;;;;5045441;28;20487;-70
2022/01/24 14:16:33;;;;;;;0.40;0.40;;;6.30;99.90;;;;;;5055387;28;20456;-71
2022/01/24 14:19:29;;;;;;;0.40;0.40;;;6.40;99.90;;;;;;5052731;28;20435;-68
2022/01/24 14:22:16;;;;;;;0.40;0.40;;;6.40;99.90;;;;;;5055832;28;20416;-70
2022/01/24 14:25:04;;;;;;;0.43;0.43;;;6.40;99.90;;;;;;5054298;28;20963;-70
2022/01/24 14:27:52;;;;;;;0.40;0.40;;;6.40;99.90;;;;;;5052900;28;20444;-69
2022/01/24 14:30:42;;;;;;;0.40;0.40;;;6.40;99.90;;;;;;5051847;28;20448;-69
2022/01/24 14:33:33;;;;;;;0.40;0.40;;;6.50;99.90;;;;;;5055264;28;20605;-71
2022/01/24 14:36:20;;;;;;;0.40;0.40;;;6.50;99.90;;;;;;5055384;28;20424;-70
2022/01/24 14:39:09;;;;;;;0.40;0.40;;;6.40;99.90;;;;;;5068202;28;20436;-70
2022/01/24 14:41:56;;;;;;;0.40;0.40;;;6.30;99.90;;;;;;5055236;28;20440;-71
2022/01/24 14:44:57;;;;;;;0.77;0.77;;;6.30;99.90;;;;;;5054455;28;20420;-70
2022/01/24 14:47:44;;;;;;;0.40;0.40;;;6.20;99.90;;;;;;5056687;28;20424;-70
2022/01/24 14:50:32;;;;;;;0.40;0.40;;;6.20;99.90;;;;;;5053254;28;20462;-70
2022/01/24 14:53:20;;;;;;;0.40;0.40;;;6.10;99.90;;;;;;5034542;28;20885;-70
2022/01/24 14:56:07;;;;;;;0.50;0.50;;;6.10;99.90;;;;;;5045977;28;20420;-71
2022/01/24 14:58:55;;;;;;;0.40;0.40;;;5.90;99.90;;;;;;5053134;28;20995;-71
2022/01/24 15:01:42;;;;;;;0.40;0.40;;;5.90;99.90;;;;;;5048821;28;20497;-70
2022/01/24 15:04:29;;;;;;;0.40;0.40;;;5.90;99.90;;;;;;5054264;28;20518;-70
2022/01/24 15:07:17;;;;;;;0.40;0.40;;;5.80;99.90;;;;;;5053301;28;20521;-70
2022/01/24 15:10:06;;;;;;;0.40;0.40;;;5.90;99.90;;;;;;5055677;28;20454;-70
2022/01/24 15:12:55;;;;;;;0.50;0.50;;;5.90;99.90;;;;;;5034960;28;20969;-72
2022/01/24 15:15:51;;;;;;;0.40;0.40;;;5.90;99.90;;;;;;5054507;28;20527;-71
2022/01/24 15:27:55;;;;;;;0.40;0.40;;;5.80;99.90;;;;;;5048177;28;20416;-72
2022/01/24 15:30:42;;;;;;;0.40;0.40;;;5.80;99.90;;;;;;5049165;28;20976;-72
2022/01/24 15:33:29;;;;;;;0.40;0.40;;;5.80;99.90;;;;;;5054124;28;20468;-71
2022/01/24 15:36:16;;;;;;;0.60;0.60;;;5.80;99.90;;;;;;5053221;28;20465;-70
2022/01/24 15:39:06;;;;;;;0.40;0.40;;;5.80;99.90;;;;;;5054840;28;20424;-72
2022/01/24 15:41:57;;;;;;;0.40;0.40;;;5.80;99.90;;;;;;5051689;28;20421;-71
2022/01/24 15:45:12;;;;;;;0.93;0.93;;;5.90;99.90;;;;;;5054930;28;20782;-71
2022/01/24 15:47:57;;;;;;;0.40;0.40;;;5.80;99.90;;;;;;5053261;28;20443;-71
2022/01/24 15:50:44;;;;;;;0.40;0.40;;;5.80;99.90;;;;;;5053944;28;20463;-72
2022/01/24 15:53:30;;;;;;;0.40;0.40;;;5.70;99.90;;;;;;5066008;28;20475;-72
2022/01/24 15:57:39;;;;;;;0.60;0.60;;;5.70;99.90;;;;;;5065262;28;20463;-72
2022/01/24 15:59:26;;;;;;;0.53;0.53;;;5.60;99.90;;;;;;5066395;28;20516;-71
2022/01/24 16:02:12;;;;;;;1.03;0.93;;;5.70;99.90;;;;;;5068032;28;20420;-71
2022/01/24 16:04:59;;;;;;;0.87;0.87;;;5.60;99.90;;;;;;5069203;28;20432;-74
2022/01/24 16:07:48;;;;;;;0.40;0.40;;;5.50;99.90;;;;;;5067793;28;20462;-73
2022/01/24 16:10:36;;;;;;;0.40;0.40;;;5.60;99.90;;;;;;5069184;28;20548;-72
2022/01/24 16:13:23;;;;;;;1.67;1.57;;;5.50;99.90;;;;;;5067585;28;20465;-71